sensor_id;sensor_type;location;lat;lon;timestamp;pressure;altitude;pressure_sealevel;temperature;humidity
57616;BME280;43816;52.054;-9.494;2023-02-11T00:00:07;103042.13;;;19.40;46.80
57616;BME280;43816;52.054;-9.494;2023-02-11T00:00:18;103040.19;;;19.42;46.69
57616;BME280;43816;52.054;-9.494;2023-02-11T00:00:28;103056.31;;;19.45;46.71
57616;BME280;43816;52.054;-9.494;2023-02-11T00:00:40;103034.22;;;19.37;46.77
57616;BME280;43816;52.054;-9.494;2023-02-11T00:00:50;103038.66;;;19.38;46.49
57616;BME280;43816;52.054;-9.494;2023-02-11T00:01:06;103046.38;;;19.44;46.71
57616;BME280;43816;52.054;-9.494;2023-02-11T00:01:24;103036.94;;;19.37;46.61
57616;BME280;43816;52.054;-9.494;2023-02-11T00:01:35;103035.44;;;19.33;46.54
57616;BME280;43816;52.054;-9.494;2023-02-11T00:01:46;103044.75;;;19.41;46.64
57616;BME280;43816;52.054;-9.494;2023-02-11T00:01:56;103045.41;;;19.45;46.60
57616;BME280;43816;52.054;-9.494;2023-02-11T00:02:06;103045.75;;;19.40;46.69
57616;BME280;43816;52.054;-9.494;2023-02-11T00:02:17;103029.13;;;19.32;46.85
57616;BME280;43816;52.054;-9.494;2023-02-11T00:02:27;103034.47;;;19.34;46.82
57616;BME280;43816;52.054;-9.494;2023-02-11T00:02:37;103035.19;;;19.36;46.61
57616;BME280;43816;52.054;-9.494;2023-02-11T00:02:47;103034.22;;;19.37;46.73
57616;BME280;43816;52.054;-9.494;2023-02-11T00:02:58;103051.97;;;19.42;46.63
57616;BME280;43816;52.054;-9.494;2023-02-11T00:03:08;103045.66;;;19.42;46.65
57616;BME280;43816;52.054;-9.494;2023-02-11T00:03:19;103028.25;;;19.32;46.40
57616;BME280;43816;52.054;-9.494;2023-02-11T00:03:29;103035.19;;;19.36;46.51
57616;BME280;43816;52.054;-9.494;2023-02-11T00:03:39;103030.84;;;19.33;46.67
57616;BME280;43816;52.054;-9.494;2023-02-11T00:03:50;103050.22;;;19.41;46.71
57616;BME280;43816;52.054;-9.494;2023-02-11T00:04:02;103024.75;;;19.30;46.48
57616;BME280;43816;52.054;-9.494;2023-02-11T00:04:12;103037.19;;;19.34;46.67
57616;BME280;43816;52.054;-9.494;2023-02-11T00:04:22;103039.69;;;19.37;46.73
57616;BME280;43816;52.054;-9.494;2023-02-11T00:04:33;103039.78;;;19.35;46.44
57616;BME280;43816;52.054;-9.494;2023-02-11T00:04:43;103030.84;;;19.33;46.97
57616;BME280;43816;52.054;-9.494;2023-02-11T00:04:54;103036.94;;;19.37;46.63
57616;BME280;43816;52.054;-9.494;2023-02-11T00:05:04;103036.19;;;19.35;46.69
57616;BME280;43816;52.054;-9.494;2023-02-11T00:05:15;103031.84;;;19.32;46.64
57616;BME280;43816;52.054;-9.494;2023-02-11T00:05:25;103031.72;;;19.34;46.74
57616;BME280;43816;52.054;-9.494;2023-02-11T00:05:36;103056.56;;;19.42;46.81
57616;BME280;43816;52.054;-9.494;2023-02-11T00:05:56;103041.75;;;19.33;46.54
57616;BME280;43816;52.054;-9.494;2023-02-11T00:06:07;103043.16;;;19.39;46.59
57616;BME280;43816;52.054;-9.494;2023-02-11T00:06:18;103037.94;;;19.36;46.85
57616;BME280;43816;52.054;-9.494;2023-02-11T00:06:29;103049.13;;;19.44;46.63
57616;BME280;43816;52.054;-9.494;2023-02-11T00:06:40;103034.47;;;19.34;46.52
57616;BME280;43816;52.054;-9.494;2023-02-11T00:06:50;103051.09;;;19.42;46.46
57616;BME280;43816;52.054;-9.494;2023-02-11T00:07:00;103051.09;;;19.42;46.60
57616;BME280;43816;52.054;-9.494;2023-02-11T00:07:10;103045.88;;;19.39;46.62
57616;BME280;43816;52.054;-9.494;2023-02-11T00:07:21;103038.91;;;19.35;46.53
57616;BME280;43816;52.054;-9.494;2023-02-11T00:07:33;103049.34;;;19.41;46.51
57616;BME280;43816;52.054;-9.494;2023-02-11T00:07:43;103043.88;;;19.41;46.53
57616;BME280;43816;52.054;-9.494;2023-02-11T00:07:53;103033.72;;;19.32;46.60
57616;BME280;43816;52.054;-9.494;2023-02-11T00:08:04;103031.72;;;19.34;46.68
57616;BME280;43816;52.054;-9.494;2023-02-11T00:08:14;103028.25;;;19.32;46.52
57616;BME280;43816;52.054;-9.494;2023-02-11T00:08:25;103042.66;;;19.34;46.46
57616;BME280;43816;52.054;-9.494;2023-02-11T00:08:36;103047.88;;;19.37;46.48
57616;BME280;43816;52.054;-9.494;2023-02-11T00:08:47;103043.38;;;19.36;46.52
57616;BME280;43816;52.054;-9.494;2023-02-11T00:08:57;103034.47;;;19.34;46.62
57616;BME280;43816;52.054;-9.494;2023-02-11T00:09:09;103035.19;;;19.36;46.60
57616;BME280;43816;52.054;-9.494;2023-02-11T00:09:20;103028.25;;;19.32;46.39
57616;BME280;43816;52.054;-9.494;2023-02-11T00:09:30;103036.06;;;19.36;46.23
57616;BME280;43816;52.054;-9.494;2023-02-11T00:09:40;103030.84;;;19.33;46.47
57616;BME280;43816;52.054;-9.494;2023-02-11T00:09:50;103044.88;;;19.40;46.63
57616;BME280;43816;52.054;-9.494;2023-02-11T00:10:01;103030.97;;;19.32;46.47
57616;BME280;43816;52.054;-9.494;2023-02-11T00:10:12;103028.25;;;19.32;46.63
57616;BME280;43816;52.054;-9.494;2023-02-11T00:10:22;103039.69;;;19.37;46.61
57616;BME280;43816;52.054;-9.494;2023-02-11T00:10:33;103030.97;;;19.32;46.53
57616;BME280;43816;52.054;-9.494;2023-02-11T00:10:43;103046.75;;;19.39;46.53
57616;BME280;43816;52.054;-9.494;2023-02-11T00:10:55;103046.50;;;19.42;46.38
57616;BME280;43816;52.054;-9.494;2023-02-11T00:11:06;103034.97;;;19.39;46.41
57616;BME280;43816;52.054;-9.494;2023-02-11T00:11:18;103025.38;;;19.33;46.54
57616;BME280;43816;52.054;-9.494;2023-02-11T00:11:30;103027.97;;;19.35;46.65
57616;BME280;43816;52.054;-9.494;2023-02-11T00:11:40;103039.28;;;19.41;46.36
57616;BME280;43816;52.054;-9.494;2023-02-11T00:11:50;103030.22;;;19.30;46.42
57616;BME280;43816;52.054;-9.494;2023-02-11T00:12:01;103027.25;;;19.33;46.41
57616;BME280;43816;52.054;-9.494;2023-02-11T00:12:11;103035.19;;;19.36;46.77
57616;BME280;43816;52.054;-9.494;2023-02-11T00:12:21;103039.41;;;19.40;46.42
57616;BME280;43816;52.054;-9.494;2023-02-11T00:12:35;103022.03;;;19.30;46.50
57616;BME280;43816;52.054;-9.494;2023-02-11T00:12:46;103029.97;;;19.33;46.47
57616;BME280;43816;52.054;-9.494;2023-02-11T00:12:56;103036.28;;;19.33;46.33
57616;BME280;43816;52.054;-9.494;2023-02-11T00:13:06;103039.69;;;19.37;46.51
57616;BME280;43816;52.054;-9.494;2023-02-11T00:13:17;103021.03;;;19.31;46.69
57616;BME280;43816;52.054;-9.494;2023-02-11T00:13:27;103036.94;;;19.37;46.64
57616;BME280;43816;52.054;-9.494;2023-02-11T00:13:37;103033.44;;;19.35;46.39
57616;BME280;43816;52.054;-9.494;2023-02-11T00:13:48;103048.50;;;19.40;46.46
57616;BME280;43816;52.054;-9.494;2023-02-11T00:14:02;103022.78;;;19.32;46.56
57616;BME280;43816;52.054;-9.494;2023-02-11T00:14:13;103043.03;;;19.40;46.36
57616;BME280;43816;52.054;-9.494;2023-02-11T00:14:23;103041.28;;;19.39;46.59
57616;BME280;43816;52.054;-9.494;2023-02-11T00:14:34;103010.47;;;19.26;46.45
57616;BME280;43816;52.054;-9.494;2023-02-11T00:14:44;103044.75;;;19.41;46.52
57616;BME280;43816;52.054;-9.494;2023-02-11T00:14:54;103032.47;;;19.36;46.46
57616;BME280;43816;52.054;-9.494;2023-02-11T00:15:06;103035.81;;;19.39;46.51
57616;BME280;43816;52.054;-9.494;2023-02-11T00:15:17;103014.06;;;19.27;46.42
57616;BME280;43816;52.054;-9.494;2023-02-11T00:15:27;103026.50;;;19.31;46.50
57616;BME280;43816;52.054;-9.494;2023-02-11T00:15:37;103022.13;;;19.28;46.63
57616;BME280;43816;52.054;-9.494;2023-02-11T00:15:48;103027.34;;;19.31;46.21
57616;BME280;43816;52.054;-9.494;2023-02-11T00:15:58;103036.94;;;19.37;46.42
57616;BME280;43816;52.054;-9.494;2023-02-11T00:16:11;103029.97;;;19.33;46.50
57616;BME280;43816;52.054;-9.494;2023-02-11T00:16:22;103053.94;;;19.40;46.61
57616;BME280;43816;52.054;-9.494;2023-02-11T00:16:32;103033.72;;;19.32;46.31
57616;BME280;43816;52.054;-9.494;2023-02-11T00:16:43;103014.34;;;19.23;46.41
57616;BME280;43816;52.054;-9.494;2023-02-11T00:16:53;103024.75;;;19.30;46.53
57616;BME280;43816;52.054;-9.494;2023-02-11T00:17:03;103024.50;;;19.33;46.41
57616;BME280;43816;52.054;-9.494;2023-02-11T00:17:14;103042.13;;;19.40;46.57
57616;BME280;43816;52.054;-9.494;2023-02-11T00:17:24;103029.22;;;19.31;46.52
57616;BME280;43816;52.054;-9.494;2023-02-11T00:17:34;103035.19;;;19.36;46.41
57616;BME280;43816;52.054;-9.494;2023-02-11T00:17:45;103041.28;;;19.39;46.49
57616;BME280;43816;52.054;-9.494;2023-02-11T00:17:55;103029.13;;;19.32;46.55
57616;BME280;43816;52.054;-9.494;2023-02-11T00:18:05;103029.22;;;19.31;46.55
57616;BME280;43816;52.054;-9.494;2023-02-11T00:18:16;103016.28;;;19.21;46.61
57616;BME280;43816;52.054;-9.494;2023-02-11T00:18:26;103039.69;;;19.37;46.30
57616;BME280;43816;52.054;-9.494;2023-02-11T00:18:37;103037.19;;;19.34;46.63
57616;BME280;43816;52.054;-9.494;2023-02-11T00:18:48;103027.25;;;19.33;46.36
57616;BME280;43816;52.054;-9.494;2023-02-11T00:18:59;103046.00;;;19.37;46.71
57616;BME280;43816;52.054;-9.494;2023-02-11T00:19:10;103030.09;;;19.31;46.56
57616;BME280;43816;52.054;-9.494;2023-02-11T00:19:20;103037.19;;;19.34;46.51
57616;BME280;43816;52.054;-9.494;2023-02-11T00:19:30;103035.44;;;19.33;46.38
57616;BME280;43816;52.054;-9.494;2023-02-11T00:19:40;103016.06;;;19.25;46.62
57616;BME280;43816;52.054;-9.494;2023-02-11T00:19:51;103046.75;;;19.39;46.57
57616;BME280;43816;52.054;-9.494;2023-02-11T00:20:02;103019.78;;;19.23;46.54
57616;BME280;43816;52.054;-9.494;2023-02-11T00:20:12;103025.75;;;19.29;46.57
57616;BME280;43816;52.054;-9.494;2023-02-11T00:20:22;103044.00;;;19.39;46.51
57616;BME280;43816;52.054;-9.494;2023-02-11T00:20:32;103043.38;;;19.36;46.39
57616;BME280;43816;52.054;-9.494;2023-02-11T00:20:43;103013.69;;;19.20;46.53
57616;BME280;43816;52.054;-9.494;2023-02-11T00:20:53;103045.13;;;19.37;46.43
57616;BME280;43816;52.054;-9.494;2023-02-11T00:21:08;103027.47;;;19.30;46.40
57616;BME280;43816;52.054;-9.494;2023-02-11T00:21:21;103030.22;;;19.30;46.38
57616;BME280;43816;52.054;-9.494;2023-02-11T00:21:32;103045.88;;;19.39;46.29
57616;BME280;43816;52.054;-9.494;2023-02-11T00:21:43;103045.88;;;19.39;46.51
57616;BME280;43816;52.054;-9.494;2023-02-11T00:21:53;103032.59;;;19.34;46.44
57616;BME280;43816;52.054;-9.494;2023-02-11T00:22:03;103046.75;;;19.39;46.49
57616;BME280;43816;52.054;-9.494;2023-02-11T00:22:14;103046.13;;;19.36;46.46
57616;BME280;43816;52.054;-9.494;2023-02-11T00:22:24;103046.00;;;19.37;46.40
57616;BME280;43816;52.054;-9.494;2023-02-11T00:22:34;103041.75;;;19.33;46.33
57616;BME280;43816;52.054;-9.494;2023-02-11T00:22:45;103028.25;;;19.32;46.36
57616;BME280;43816;52.054;-9.494;2023-02-11T00:22:55;103036.28;;;19.33;46.09
57616;BME280;43816;52.054;-9.494;2023-02-11T00:23:05;103044.47;;;19.33;46.44
57616;BME280;43816;52.054;-9.494;2023-02-11T00:23:15;103045.88;;;19.39;46.31
57616;BME280;43816;52.054;-9.494;2023-02-11T00:23:26;103036.56;;;19.30;46.29
57616;BME280;43816;52.054;-9.494;2023-02-11T00:23:36;103038.91;;;19.35;46.35
57616;BME280;43816;52.054;-9.494;2023-02-11T00:23:47;103034.56;;;19.32;46.27
57616;BME280;43816;52.054;-9.494;2023-02-11T00:23:58;103042.41;;;19.37;46.39
57616;BME280;43816;52.054;-9.494;2023-02-11T00:24:09;103040.41;;;19.39;46.39
57616;BME280;43816;52.054;-9.494;2023-02-11T00:24:19;103043.16;;;19.39;46.47
57616;BME280;43816;52.054;-9.494;2023-02-11T00:24:29;103050.31;;;19.40;46.40
57616;BME280;43816;52.054;-9.494;2023-02-11T00:24:40;103039.03;;;19.33;46.35
57616;BME280;43816;52.054;-9.494;2023-02-11T00:24:50;103039.16;;;19.32;46.20
57616;BME280;43816;52.054;-9.494;2023-02-11T00:25:00;103035.44;;;19.33;46.11
57616;BME280;43816;52.054;-9.494;2023-02-11T00:25:11;103029.59;;;19.26;46.30
57616;BME280;43816;52.054;-9.494;2023-02-11T00:25:21;103030.22;;;19.30;46.25
57616;BME280;43816;52.054;-9.494;2023-02-11T00:25:31;103039.03;;;19.33;46.21
57616;BME280;43816;52.054;-9.494;2023-02-11T00:25:43;103040.16;;;19.31;46.28
57616;BME280;43816;52.054;-9.494;2023-02-11T00:25:54;103039.16;;;19.32;46.18
57616;BME280;43816;52.054;-9.494;2023-02-11T00:26:11;103043.63;;;19.33;46.41
57616;BME280;43816;52.054;-9.494;2023-02-11T00:26:25;103047.75;;;19.38;46.30
57616;BME280;43816;52.054;-9.494;2023-02-11T00:26:35;103030.31;;;19.28;46.23
57616;BME280;43816;52.054;-9.494;2023-02-11T00:26:46;103043.38;;;19.36;46.16
57616;BME280;43816;52.054;-9.494;2023-02-11T00:26:56;103040.16;;;19.31;45.84
57616;BME280;43816;52.054;-9.494;2023-02-11T00:27:06;103032.19;;;19.28;46.21
57616;BME280;43816;52.054;-9.494;2023-02-11T00:27:16;103047.75;;;19.38;46.26
57616;BME280;43816;52.054;-9.494;2023-02-11T00:27:27;103039.16;;;19.32;46.10
57616;BME280;43816;52.054;-9.494;2023-02-11T00:27:37;103052.31;;;19.38;46.33
57616;BME280;43816;52.054;-9.494;2023-02-11T00:27:47;103042.66;;;19.34;46.29
57616;BME280;43816;52.054;-9.494;2023-02-11T00:27:58;103039.16;;;19.32;46.30
57616;BME280;43816;52.054;-9.494;2023-02-11T00:28:08;103034.81;;;19.29;46.28
57616;BME280;43816;52.054;-9.494;2023-02-11T00:28:19;103036.69;;;19.29;46.27
57616;BME280;43816;52.054;-9.494;2023-02-11T00:28:29;103036.69;;;19.29;46.17
57616;BME280;43816;52.054;-9.494;2023-02-11T00:28:39;103045.03;;;19.38;46.28
57616;BME280;43816;52.054;-9.494;2023-02-11T00:28:50;103042.28;;;19.38;46.33
57616;BME280;43816;52.054;-9.494;2023-02-11T00:29:02;103047.75;;;19.38;46.34
57616;BME280;43816;52.054;-9.494;2023-02-11T00:29:12;103012.81;;;19.19;46.27
57616;BME280;43816;52.054;-9.494;2023-02-11T00:29:23;103037.41;;;19.31;46.46
57616;BME280;43816;52.054;-9.494;2023-02-11T00:29:33;103036.44;;;19.32;46.16
57616;BME280;43816;52.054;-9.494;2023-02-11T00:29:43;103027.72;;;19.27;46.32
57616;BME280;43816;52.054;-9.494;2023-02-11T00:29:54;103032.81;;;19.31;46.40
57616;BME280;43816;52.054;-9.494;2023-02-11T00:30:04;103049.59;;;19.38;46.35
57616;BME280;43816;52.054;-9.494;2023-02-11T00:30:15;103040.03;;;19.32;46.28
57616;BME280;43816;52.054;-9.494;2023-02-11T00:30:25;103040.03;;;19.32;46.18
57616;BME280;43816;52.054;-9.494;2023-02-11T00:30:36;103047.88;;;19.37;46.31
57616;BME280;43816;52.054;-9.494;2023-02-11T00:30:56;103029.13;;;19.32;46.21
57616;BME280;43816;52.054;-9.494;2023-02-11T00:31:06;103029.34;;;19.29;46.39
57616;BME280;43816;52.054;-9.494;2023-02-11T00:31:18;103047.88;;;19.37;46.34
57616;BME280;43816;52.054;-9.494;2023-02-11T00:31:29;103030.97;;;19.32;46.26
57616;BME280;43816;52.054;-9.494;2023-02-11T00:31:40;103035.19;;;19.36;46.23
57616;BME280;43816;52.054;-9.494;2023-02-11T00:31:50;103045.13;;;19.37;46.21
57616;BME280;43816;52.054;-9.494;2023-02-11T00:32:00;103044.25;;;19.36;46.30
57616;BME280;43816;52.054;-9.494;2023-02-11T00:32:10;103036.56;;;19.30;46.20
57616;BME280;43816;52.054;-9.494;2023-02-11T00:32:21;103044.13;;;19.38;46.40
57616;BME280;43816;52.054;-9.494;2023-02-11T00:32:31;103018.03;;;19.22;46.25
57616;BME280;43816;52.054;-9.494;2023-02-11T00:32:41;103040.03;;;19.32;46.37
57616;BME280;43816;52.054;-9.494;2023-02-11T00:32:52;103039.91;;;19.34;46.23
57616;BME280;43816;52.054;-9.494;2023-02-11T00:33:02;103043.25;;;19.37;46.30
57616;BME280;43816;52.054;-9.494;2023-02-11T00:33:13;103025.00;;;19.27;46.21
57616;BME280;43816;52.054;-9.494;2023-02-11T00:33:23;103045.13;;;19.37;46.00
57616;BME280;43816;52.054;-9.494;2023-02-11T00:33:34;103047.88;;;19.37;46.34
57616;BME280;43816;52.054;-9.494;2023-02-11T00:33:44;103045.13;;;19.37;46.32
57616;BME280;43816;52.054;-9.494;2023-02-11T00:33:55;103016.06;;;19.25;46.36
57616;BME280;43816;52.054;-9.494;2023-02-11T00:34:05;103045.13;;;19.37;46.37
57616;BME280;43816;52.054;-9.494;2023-02-11T00:34:16;103036.94;;;19.37;46.46
57616;BME280;43816;52.054;-9.494;2023-02-11T00:34:26;103031.09;;;19.30;46.42
57616;BME280;43816;52.054;-9.494;2023-02-11T00:34:36;103022.13;;;19.28;46.13
57616;BME280;43816;52.054;-9.494;2023-02-11T00:34:51;103023.25;;;19.26;46.46
57616;BME280;43816;52.054;-9.494;2023-02-11T00:35:01;103035.19;;;19.36;46.47
57616;BME280;43816;52.054;-9.494;2023-02-11T00:35:11;103038.78;;;19.36;46.34
57616;BME280;43816;52.054;-9.494;2023-02-11T00:35:22;103043.63;;;19.33;46.49
57616;BME280;43816;52.054;-9.494;2023-02-11T00:35:32;103030.22;;;19.30;46.23
57616;BME280;43816;52.054;-9.494;2023-02-11T00:35:42;103023.88;;;19.29;46.44
57616;BME280;43816;52.054;-9.494;2023-02-11T00:35:53;103017.81;;;19.26;46.49
57616;BME280;43816;52.054;-9.494;2023-02-11T00:36:05;103041.50;;;19.36;46.41
57616;BME280;43816;52.054;-9.494;2023-02-11T00:36:22;103035.19;;;19.36;46.31
57616;BME280;43816;52.054;-9.494;2023-02-11T00:36:33;103030.09;;;19.31;46.26
57616;BME280;43816;52.054;-9.494;2023-02-11T00:36:43;103032.59;;;19.34;46.37
57616;BME280;43816;52.054;-9.494;2023-02-11T00:36:53;103014.34;;;19.23;46.31
57616;BME280;43816;52.054;-9.494;2023-02-11T00:37:04;103029.22;;;19.31;45.94
57616;BME280;43816;52.054;-9.494;2023-02-11T00:37:15;103030.44;;;19.27;45.97
57616;BME280;43816;52.054;-9.494;2023-02-11T00:37:25;103036.56;;;19.30;46.05
57616;BME280;43816;52.054;-9.494;2023-02-11T00:37:36;103045.13;;;19.37;46.05
57616;BME280;43816;52.054;-9.494;2023-02-11T00:37:46;103035.66;;;19.30;45.96
57616;BME280;43816;52.054;-9.494;2023-02-11T00:37:56;103038.16;;;19.33;46.19
57616;BME280;43816;52.054;-9.494;2023-02-11T00:38:07;103034.69;;;19.31;46.37
57616;BME280;43816;52.054;-9.494;2023-02-11T00:38:17;103031.22;;;19.29;46.39
57616;BME280;43816;52.054;-9.494;2023-02-11T00:38:27;103047.88;;;19.37;46.16
57616;BME280;43816;52.054;-9.494;2023-02-11T00:38:37;103024.13;;;19.26;46.29
57616;BME280;43816;52.054;-9.494;2023-02-11T00:38:48;103047.88;;;19.37;46.27
57616;BME280;43816;52.054;-9.494;2023-02-11T00:38:59;103038.91;;;19.35;46.39
57616;BME280;43816;52.054;-9.494;2023-02-11T00:39:10;103038.78;;;19.36;46.28
57616;BME280;43816;52.054;-9.494;2023-02-11T00:39:20;103035.66;;;19.30;46.28
57616;BME280;43816;52.054;-9.494;2023-02-11T00:39:31;103046.97;;;19.36;46.24
57616;BME280;43816;52.054;-9.494;2023-02-11T00:39:41;103032.31;;;19.26;46.31
57616;BME280;43816;52.054;-9.494;2023-02-11T00:39:51;103032.19;;;19.28;46.29
57616;BME280;43816;52.054;-9.494;2023-02-11T00:40:03;103042.66;;;19.34;46.18
57616;BME280;43816;52.054;-9.494;2023-02-11T00:40:14;103030.22;;;19.30;46.14
57616;BME280;43816;52.054;-9.494;2023-02-11T00:40:24;103024.38;;;19.23;46.54
57616;BME280;43816;52.054;-9.494;2023-02-11T00:40:35;103033.72;;;19.32;46.54
57616;BME280;43816;52.054;-9.494;2023-02-11T00:40:45;103025.25;;;19.23;46.15
57616;BME280;43816;52.054;-9.494;2023-02-11T00:40:55;103030.97;;;19.32;46.38
57616;BME280;43816;52.054;-9.494;2023-02-11T00:41:06;103037.41;;;19.31;46.29
57616;BME280;43816;52.054;-9.494;2023-02-11T00:41:17;103036.56;;;19.30;46.70
57616;BME280;43816;52.054;-9.494;2023-02-11T00:41:27;103035.66;;;19.30;46.23
57616;BME280;43816;52.054;-9.494;2023-02-11T00:41:38;103038.28;;;19.31;46.35
57616;BME280;43816;52.054;-9.494;2023-02-11T00:41:48;103039.16;;;19.32;46.40
57616;BME280;43816;52.054;-9.494;2023-02-11T00:41:58;103040.03;;;19.32;46.34
57616;BME280;43816;52.054;-9.494;2023-02-11T00:42:13;103037.41;;;19.31;46.34
57616;BME280;43816;52.054;-9.494;2023-02-11T00:42:24;103032.19;;;19.28;46.26
57616;BME280;43816;52.054;-9.494;2023-02-11T00:42:34;103040.16;;;19.31;46.47
57616;BME280;43816;52.054;-9.494;2023-02-11T00:42:44;103043.50;;;19.34;46.53
57616;BME280;43816;52.054;-9.494;2023-02-11T00:42:55;103038.03;;;19.34;46.19
57616;BME280;43816;52.054;-9.494;2023-02-11T00:43:05;103039.28;;;19.30;46.37
57616;BME280;43816;52.054;-9.494;2023-02-11T00:43:15;103038.03;;;19.34;46.35
57616;BME280;43816;52.054;-9.494;2023-02-11T00:43:26;103039.78;;;19.35;46.22
57616;BME280;43816;52.054;-9.494;2023-02-11T00:43:36;103038.16;;;19.33;46.36
57616;BME280;43816;52.054;-9.494;2023-02-11T00:43:46;103039.78;;;19.35;46.35
57616;BME280;43816;52.054;-9.494;2023-02-11T00:43:57;103040.78;;;19.34;46.28
57616;BME280;43816;52.054;-9.494;2023-02-11T00:44:07;103038.91;;;19.35;46.19
57616;BME280;43816;52.054;-9.494;2023-02-11T00:44:18;103048.84;;;19.36;46.26
57616;BME280;43816;52.054;-9.494;2023-02-11T00:44:28;103028.97;;;19.22;46.17
57616;BME280;43816;52.054;-9.494;2023-02-11T00:44:38;103038.16;;;19.33;46.36
57616;BME280;43816;52.054;-9.494;2023-02-11T00:44:49;103033.94;;;19.29;46.37
57616;BME280;43816;52.054;-9.494;2023-02-11T00:44:59;103014.81;;;19.17;46.40
57616;BME280;43816;52.054;-9.494;2023-02-11T00:45:09;103049.69;;;19.36;46.10
57616;BME280;43816;52.054;-9.494;2023-02-11T00:45:20;103035.56;;;19.31;46.13
57616;BME280;43816;52.054;-9.494;2023-02-11T00:45:30;103026.13;;;19.24;46.45
57616;BME280;43816;52.054;-9.494;2023-02-11T00:45:40;103020.03;;;19.20;46.18
57616;BME280;43816;52.054;-9.494;2023-02-11T00:45:51;103028.50;;;19.29;46.34
57616;BME280;43816;52.054;-9.494;2023-02-11T00:46:01;103040.66;;;19.36;46.24
57616;BME280;43816;52.054;-9.494;2023-02-11T00:46:12;103031.97;;;19.31;46.29
57616;BME280;43816;52.054;-9.494;2023-02-11T00:46:22;103047.88;;;19.37;46.18
57616;BME280;43816;52.054;-9.494;2023-02-11T00:46:33;103040.03;;;19.32;46.36
57616;BME280;43816;52.054;-9.494;2023-02-11T00:46:43;103025.88;;;19.27;46.26
57616;BME280;43816;52.054;-9.494;2023-02-11T00:46:54;103029.22;;;19.31;46.36
57616;BME280;43816;52.054;-9.494;2023-02-11T00:47:04;103031.22;;;19.29;46.48
57616;BME280;43816;52.054;-9.494;2023-02-11T00:47:14;103034.56;;;19.32;46.56
57616;BME280;43816;52.054;-9.494;2023-02-11T00:47:24;103034.56;;;19.32;46.26
57616;BME280;43816;52.054;-9.494;2023-02-11T00:47:35;103043.38;;;19.36;46.24
57616;BME280;43816;52.054;-9.494;2023-02-11T00:47:45;103036.44;;;19.32;46.33
57616;BME280;43816;52.054;-9.494;2023-02-11T00:47:56;103043.38;;;19.36;46.25
57616;BME280;43816;52.054;-9.494;2023-02-11T00:48:06;103033.72;;;19.32;45.98
57616;BME280;43816;52.054;-9.494;2023-02-11T00:48:16;103023.50;;;19.22;46.29
57616;BME280;43816;52.054;-9.494;2023-02-11T00:48:27;103036.44;;;19.32;46.18
57616;BME280;43816;52.054;-9.494;2023-02-11T00:48:38;103031.22;;;19.29;46.36
57616;BME280;43816;52.054;-9.494;2023-02-11T00:48:49;103036.56;;;19.30;46.29
57616;BME280;43816;52.054;-9.494;2023-02-11T00:48:59;103032.06;;;19.29;46.21
57616;BME280;43816;52.054;-9.494;2023-02-11T00:49:09;103023.38;;;19.24;46.35
57616;BME280;43816;52.054;-9.494;2023-02-11T00:49:20;103046.34;;;19.33;46.40
57616;BME280;43816;52.054;-9.494;2023-02-11T00:49:30;103038.28;;;19.31;46.38
57616;BME280;43816;52.054;-9.494;2023-02-11T00:49:40;103027.59;;;19.28;46.07
57616;BME280;43816;52.054;-9.494;2023-02-11T00:49:51;103029.59;;;19.26;46.05
57616;BME280;43816;52.054;-9.494;2023-02-11T00:50:02;103035.66;;;19.30;46.15
57616;BME280;43816;52.054;-9.494;2023-02-11T00:50:12;103037.41;;;19.31;46.18
57616;BME280;43816;52.054;-9.494;2023-02-11T00:50:23;103034.94;;;19.28;46.15
57616;BME280;43816;52.054;-9.494;2023-02-11T00:50:33;103031.34;;;19.27;46.29
57616;BME280;43816;52.054;-9.494;2023-02-11T00:50:43;103033.06;;;19.28;46.49
57616;BME280;43816;52.054;-9.494;2023-02-11T00:50:54;103043.38;;;19.36;46.24
57616;BME280;43816;52.054;-9.494;2023-02-11T00:51:05;103045.25;;;19.35;46.37
57616;BME280;43816;52.054;-9.494;2023-02-11T00:51:15;103034.56;;;19.32;46.41
57616;BME280;43816;52.054;-9.494;2023-02-11T00:51:27;103042.53;;;19.35;46.34
57616;BME280;43816;52.054;-9.494;2023-02-11T00:51:37;103031.22;;;19.29;46.29
57616;BME280;43816;52.054;-9.494;2023-02-11T00:51:47;103042.66;;;19.34;46.34
57616;BME280;43816;52.054;-9.494;2023-02-11T00:51:58;103011.06;;;19.18;46.18
57616;BME280;43816;52.054;-9.494;2023-02-11T00:52:08;103036.44;;;19.32;46.26
57616;BME280;43816;52.054;-9.494;2023-02-11T00:52:18;103040.66;;;19.36;46.25
57616;BME280;43816;52.054;-9.494;2023-02-11T00:52:29;103038.91;;;19.35;46.27
57616;BME280;43816;52.054;-9.494;2023-02-11T00:52:39;103040.66;;;19.36;46.23
57616;BME280;43816;52.054;-9.494;2023-02-11T00:52:50;103032.06;;;19.29;46.37
57616;BME280;43816;52.054;-9.494;2023-02-11T00:53:00;103041.63;;;19.35;46.25
57616;BME280;43816;52.054;-9.494;2023-02-11T00:53:11;103028.50;;;19.29;46.39
57616;BME280;43816;52.054;-9.494;2023-02-11T00:53:21;103025.00;;;19.27;46.18
57616;BME280;43816;52.054;-9.494;2023-02-11T00:53:32;103022.38;;;19.25;46.35
57616;BME280;43816;52.054;-9.494;2023-02-11T00:53:43;103032.94;;;19.30;46.31
57616;BME280;43816;52.054;-9.494;2023-02-11T00:53:53;103036.06;;;19.36;46.34
57616;BME280;43816;52.054;-9.494;2023-02-11T00:54:04;103007.47;;;19.18;46.34
57616;BME280;43816;52.054;-9.494;2023-02-11T00:54:14;103034.34;;;19.35;46.27
57616;BME280;43816;52.054;-9.494;2023-02-11T00:54:25;103025.00;;;19.27;46.26
57616;BME280;43816;52.054;-9.494;2023-02-11T00:54:35;103028.50;;;19.29;46.32
57616;BME280;43816;52.054;-9.494;2023-02-11T00:54:45;103038.91;;;19.35;46.18
57616;BME280;43816;52.054;-9.494;2023-02-11T00:54:55;103037.94;;;19.36;46.33
57616;BME280;43816;52.054;-9.494;2023-02-11T00:55:06;103038.91;;;19.35;46.49
57616;BME280;43816;52.054;-9.494;2023-02-11T00:55:16;103040.66;;;19.36;46.38
57616;BME280;43816;52.054;-9.494;2023-02-11T00:55:27;103029.97;;;19.33;46.13